sensor_id;sensor_type;location;lat;lon;timestamp;pressure;altitude;pressure_sealevel;temperature;humidity
49044;BME280;34860;48.066;14.124;2022-07-29T00:01:02;96481.38;;;21.00;52.59
49044;BME280;34860;48.066;14.124;2022-07-29T00:03:51;96485.00;;;20.95;52.75
49044;BME280;34860;48.066;14.124;2022-07-29T00:06:40;96474.19;;;20.94;52.79
49044;BME280;34860;48.066;14.124;2022-07-29T00:09:30;96479.31;;;20.90;53.07
49044;BME280;34860;48.066;14.124;2022-07-29T00:12:19;96478.56;;;20.89;52.81
49044;BME280;34860;48.066;14.124;2022-07-29T00:15:10;96473.69;;;20.84;53.04
49044;BME280;34860;48.066;14.124;2022-07-29T00:17:59;96475.22;;;20.79;53.07
49044;BME280;34860;48.066;14.124;2022-07-29T00:20:48;96463.88;;;20.74;52.90
49044;BME280;34860;48.066;14.124;2022-07-29T00:23:37;96473.66;;;20.73;52.98
49044;BME280;34860;48.066;14.124;2022-07-29T00:26:26;96469.03;;;20.70;53.20
49044;BME280;34860;48.066;14.124;2022-07-29T00:29:19;96469.50;;;20.62;53.20
49044;BME280;34860;48.066;14.124;2022-07-29T00:32:25;96475.66;;;20.61;53.40
49044;BME280;34860;48.066;14.124;2022-07-29T00:35:14;96481.28;;;20.61;53.17
49044;BME280;34860;48.066;14.124;2022-07-29T00:38:20;96477.69;;;20.55;53.14
49044;BME280;34860;48.066;14.124;2022-07-29T00:41:09;96482.28;;;20.46;53.23
49044;BME280;34860;48.066;14.124;2022-07-29T00:43:58;96489.19;;;20.40;53.37
49044;BME280;34860;48.066;14.124;2022-07-29T00:46:47;96490.66;;;20.29;53.28
49044;BME280;34860;48.066;14.124;2022-07-29T00:49:38;96491.94;;;20.23;53.35
49044;BME280;34860;48.066;14.124;2022-07-29T00:52:28;96499.59;;;20.17;53.39
49044;BME280;34860;48.066;14.124;2022-07-29T00:55:17;96502.94;;;20.15;53.30
49044;BME280;34860;48.066;14.124;2022-07-29T00:58:06;96495.50;;;20.12;53.27
49044;BME280;34860;48.066;14.124;2022-07-29T01:00:55;96499.03;;;20.07;53.55
49044;BME280;34860;48.066;14.124;2022-07-29T01:03:44;96488.75;;;19.98;53.46
49044;BME280;34860;48.066;14.124;2022-07-29T01:06:35;96491.03;;;19.94;53.74
49044;BME280;34860;48.066;14.124;2022-07-29T01:09:24;96496.41;;;19.92;53.71
49044;BME280;34860;48.066;14.124;2022-07-29T01:12:17;96488.19;;;19.88;53.75
49044;BME280;34860;48.066;14.124;2022-07-29T01:15:08;96496.13;;;19.84;53.86
49044;BME280;34860;48.066;14.124;2022-07-29T01:18:01;96487.13;;;19.80;53.72
49044;BME280;34860;48.066;14.124;2022-07-29T01:21:12;96498.13;;;19.78;53.83
49044;BME280;34860;48.066;14.124;2022-07-29T01:24:14;96500.41;;;19.74;53.88
49044;BME280;34860;48.066;14.124;2022-07-29T01:27:24;96505.22;;;19.68;53.94
49044;BME280;34860;48.066;14.124;2022-07-29T01:30:22;96511.34;;;19.66;53.76
49044;BME280;34860;48.066;14.124;2022-07-29T01:33:15;96518.75;;;19.64;53.78
49044;BME280;34860;48.066;14.124;2022-07-29T01:36:25;96520.81;;;19.63;53.83
49044;BME280;34860;48.066;14.124;2022-07-29T01:39:19;96514.41;;;19.63;53.86
49044;BME280;34860;48.066;14.124;2022-07-29T01:42:19;96510.06;;;19.67;53.60
49044;BME280;34860;48.066;14.124;2022-07-29T01:49:02;96508.66;;;19.83;53.74
49044;BME280;34860;48.066;14.124;2022-07-29T01:51:59;96508.19;;;19.90;53.51
49044;BME280;34860;48.066;14.124;2022-07-29T01:54:53;96505.13;;;19.94;53.67
49044;BME280;34860;48.066;14.124;2022-07-29T01:57:45;96509.25;;;19.99;53.58
49044;BME280;34860;48.066;14.124;2022-07-29T02:00:36;96508.31;;;20.07;53.73
49044;BME280;34860;48.066;14.124;2022-07-29T02:03:27;96509.38;;;20.16;53.62
49044;BME280;34860;48.066;14.124;2022-07-29T02:06:21;96506.81;;;20.18;53.73
49044;BME280;34860;48.066;14.124;2022-07-29T02:09:12;96510.66;;;20.20;53.88
49044;BME280;34860;48.066;14.124;2022-07-29T02:12:03;96507.84;;;20.26;53.85
49044;BME280;34860;48.066;14.124;2022-07-29T02:14:53;96506.59;;;20.32;53.88
49044;BME280;34860;48.066;14.124;2022-07-29T02:17:49;96502.53;;;20.39;53.71
49044;BME280;34860;48.066;14.124;2022-07-29T02:20:41;96504.06;;;20.35;53.79
49044;BME280;34860;48.066;14.124;2022-07-29T02:23:35;96501.19;;;20.29;53.89
49044;BME280;34860;48.066;14.124;2022-07-29T02:26:27;96496.31;;;20.29;53.93
49044;BME280;34860;48.066;14.124;2022-07-29T02:29:19;96507.09;;;20.31;53.91
49044;BME280;34860;48.066;14.124;2022-07-29T02:32:10;96506.59;;;20.27;53.97
49044;BME280;34860;48.066;14.124;2022-07-29T02:35:00;96501.69;;;20.22;53.98
49044;BME280;34860;48.066;14.124;2022-07-29T02:37:50;96505.53;;;20.19;54.01
49044;BME280;34860;48.066;14.124;2022-07-29T02:40:56;96506.03;;;20.17;54.05
49044;BME280;34860;48.066;14.124;2022-07-29T02:43:52;96496.25;;;20.12;54.37
49044;BME280;34860;48.066;14.124;2022-07-29T02:46:48;96498.81;;;20.10;54.19
49044;BME280;34860;48.066;14.124;2022-07-29T02:49:40;96491.88;;;20.11;54.34
49044;BME280;34860;48.066;14.124;2022-07-29T02:52:35;96482.66;;;20.11;54.37
49044;BME280;34860;48.066;14.124;2022-07-29T02:55:30;96483.69;;;20.13;54.39
49044;BME280;34860;48.066;14.124;2022-07-29T02:58:24;96478.31;;;20.16;54.37
49044;BME280;34860;48.066;14.124;2022-07-29T03:01:18;96481.91;;;20.16;54.15
49044;BME280;34860;48.066;14.124;2022-07-29T03:04:09;96477.81;;;20.17;54.14
49044;BME280;34860;48.066;14.124;2022-07-29T03:07:00;96474.50;;;20.19;54.42
49044;BME280;34860;48.066;14.124;2022-07-29T03:09:51;96481.44;;;20.23;54.37
49044;BME280;34860;48.066;14.124;2022-07-29T03:12:41;96486.28;;;20.23;54.23
49044;BME280;34860;48.066;14.124;2022-07-29T03:15:32;96479.38;;;20.24;54.37
49044;BME280;34860;48.066;14.124;2022-07-29T03:18:22;96477.81;;;20.23;54.43
49044;BME280;34860;48.066;14.124;2022-07-29T03:21:11;96481.16;;;20.16;54.52
49044;BME280;34860;48.066;14.124;2022-07-29T03:24:00;96474.19;;;20.11;54.76
49044;BME280;34860;48.066;14.124;2022-07-29T03:26:51;96473.94;;;20.09;54.73
49044;BME280;34860;48.066;14.124;2022-07-29T03:29:40;96473.94;;;20.09;54.72
49044;BME280;34860;48.066;14.124;2022-07-29T03:32:31;96471.13;;;20.09;54.77
49044;BME280;34860;48.066;14.124;2022-07-29T03:35:20;96463.94;;;20.08;54.77
49044;BME280;34860;48.066;14.124;2022-07-29T03:38:09;96472.94;;;20.12;54.70
49044;BME280;34860;48.066;14.124;2022-07-29T03:41:00;96464.72;;;20.14;54.86
49044;BME280;34860;48.066;14.124;2022-07-29T03:43:51;96464.72;;;20.14;54.84
49044;BME280;34860;48.066;14.124;2022-07-29T03:46:43;96467.81;;;20.16;54.92
49044;BME280;34860;48.066;14.124;2022-07-29T03:49:36;96464.97;;;20.16;54.99
49044;BME280;34860;48.066;14.124;2022-07-29T03:52:26;96465.25;;;20.18;54.96
49044;BME280;34860;48.066;14.124;2022-07-29T03:55:16;96462.19;;;20.22;55.00
49044;BME280;34860;48.066;14.124;2022-07-29T03:58:05;96470.41;;;20.25;54.91
49044;BME280;34860;48.066;14.124;2022-07-29T04:00:55;96476.06;;;20.31;54.85
49044;BME280;34860;48.066;14.124;2022-07-29T04:03:45;96471.22;;;20.37;54.94
49044;BME280;34860;48.066;14.124;2022-07-29T04:06:40;96466.09;;;20.41;54.90
49044;BME280;34860;48.066;14.124;2022-07-29T04:09:29;96477.41;;;20.47;55.01
49044;BME280;34860;48.066;14.124;2022-07-29T04:12:18;96478.19;;;20.47;54.77
49044;BME280;34860;48.066;14.124;2022-07-29T04:15:09;96473.03;;;20.51;54.94
49044;BME280;34860;48.066;14.124;2022-07-29T04:17:58;96478.72;;;20.57;54.89
49044;BME280;34860;48.066;14.124;2022-07-29T04:20:48;96483.09;;;20.58;54.80
49044;BME280;34860;48.066;14.124;2022-07-29T04:23:39;96484.38;;;20.63;54.93
49044;BME280;34860;48.066;14.124;2022-07-29T04:26:28;96484.94;;;20.67;54.95
49044;BME280;34860;48.066;14.124;2022-07-29T04:29:17;96485.69;;;20.67;54.94
49044;BME280;34860;48.066;14.124;2022-07-29T04:32:07;96495.97;;;20.65;55.10
49044;BME280;34860;48.066;14.124;2022-07-29T04:34:56;96501.81;;;20.61;55.08
49044;BME280;34860;48.066;14.124;2022-07-29T04:37:45;96500.28;;;20.60;55.06
49044;BME280;34860;48.066;14.124;2022-07-29T04:40:36;96500.53;;;20.62;55.11
49044;BME280;34860;48.066;14.124;2022-07-29T04:43:25;96504.91;;;20.63;55.06
49044;BME280;34860;48.066;14.124;2022-07-29T04:46:14;96506.94;;;20.63;55.18
49044;BME280;34860;48.066;14.124;2022-07-29T04:49:03;96504.44;;;20.65;55.16
49044;BME280;34860;48.066;14.124;2022-07-29T04:51:52;96512.41;;;20.66;55.28
49044;BME280;34860;48.066;14.124;2022-07-29T04:54:41;96504.44;;;20.65;55.38
49044;BME280;34860;48.066;14.124;2022-07-29T04:57:32;96506.75;;;20.66;55.50
49044;BME280;34860;48.066;14.124;2022-07-29T05:00:21;96520.13;;;20.72;55.46
49044;BME280;34860;48.066;14.124;2022-07-29T05:03:10;96511.13;;;20.73;55.39
49044;BME280;34860;48.066;14.124;2022-07-29T05:05:59;96510.63;;;20.75;55.36
49044;BME280;34860;48.066;14.124;2022-07-29T05:08:48;96503.44;;;20.79;55.33
49044;BME280;34860;48.066;14.124;2022-07-29T05:11:37;96501.13;;;20.83;55.45
49044;BME280;34860;48.066;14.124;2022-07-29T05:14:28;96505.00;;;20.92;55.31
49044;BME280;34860;48.066;14.124;2022-07-29T05:17:18;96510.41;;;20.95;55.27
49044;BME280;34860;48.066;14.124;2022-07-29T05:20:10;96510.41;;;21.01;55.32
49044;BME280;34860;48.066;14.124;2022-07-29T05:23:00;96515.31;;;21.06;55.06
49044;BME280;34860;48.066;14.124;2022-07-29T05:25:49;96509.66;;;21.12;55.09
49044;BME280;34860;48.066;14.124;2022-07-29T05:28:38;96514.53;;;21.17;55.21
49044;BME280;34860;48.066;14.124;2022-07-29T05:31:29;96506.06;;;21.22;55.23
49044;BME280;34860;48.066;14.124;2022-07-29T05:34:18;96502.47;;;21.28;55.41
49044;BME280;34860;48.066;14.124;2022-07-29T05:37:08;96506.34;;;21.30;55.08
49044;BME280;34860;48.066;14.124;2022-07-29T05:39:57;96505.03;;;21.31;55.08
49044;BME280;34860;48.066;14.124;2022-07-29T05:42:46;96501.97;;;21.35;55.07
49044;BME280;34860;48.066;14.124;2022-07-29T05:45:35;96513.25;;;21.40;55.05
49044;BME280;34860;48.066;14.124;2022-07-29T05:48:25;96506.06;;;21.45;55.11
49044;BME280;34860;48.066;14.124;2022-07-29T05:51:15;96510.44;;;21.46;55.21
49044;BME280;34860;48.066;14.124;2022-07-29T05:54:04;96514.59;;;21.51;55.35
49044;BME280;34860;48.066;14.124;2022-07-29T05:56:53;96511.22;;;21.58;55.39
49044;BME280;34860;48.066;14.124;2022-07-29T05:59:43;96507.63;;;21.57;55.47
49044;BME280;34860;48.066;14.124;2022-07-29T06:02:32;96515.09;;;21.49;55.76
49044;BME280;34860;48.066;14.124;2022-07-29T06:05:22;96501.94;;;21.40;56.27
49044;BME280;34860;48.066;14.124;2022-07-29T06:08:26;96506.56;;;21.38;56.61
49044;BME280;34860;48.066;14.124;2022-07-29T06:11:15;96514.31;;;21.49;56.42
49044;BME280;34860;48.066;14.124;2022-07-29T06:14:04;96513.53;;;21.65;56.19
49044;BME280;34860;48.066;14.124;2022-07-29T06:16:53;96524.59;;;21.63;56.35
49044;BME280;34860;48.066;14.124;2022-07-29T06:19:42;96517.41;;;21.56;56.47
49044;BME280;34860;48.066;14.124;2022-07-29T06:22:31;96516.34;;;21.54;56.64
49044;BME280;34860;48.066;14.124;2022-07-29T06:25:21;96519.19;;;21.59;56.56
49044;BME280;34860;48.066;14.124;2022-07-29T06:28:10;96529.22;;;21.61;56.39
49044;BME280;34860;48.066;14.124;2022-07-29T06:30:59;96536.91;;;21.71;56.39
49044;BME280;34860;48.066;14.124;2022-07-29T06:33:49;96532.03;;;21.66;56.52
49044;BME280;34860;48.066;14.124;2022-07-29T06:36:38;96540.53;;;21.66;56.67
49044;BME280;34860;48.066;14.124;2022-07-29T06:39:27;96538.47;;;21.67;56.63
49044;BME280;34860;48.066;14.124;2022-07-29T06:42:17;96539.50;;;21.75;56.47
49044;BME280;34860;48.066;14.124;2022-07-29T06:45:07;96535.38;;;21.82;56.28
49044;BME280;34860;48.066;14.124;2022-07-29T06:47:56;96540.25;;;21.87;56.17
49044;BME280;34860;48.066;14.124;2022-07-29T06:50:45;96537.44;;;21.81;56.37
49044;BME280;34860;48.066;14.124;2022-07-29T06:53:34;96554.41;;;21.81;56.42
49044;BME280;34860;48.066;14.124;2022-07-29T06:56:23;96548.25;;;21.83;56.46
49044;BME280;34860;48.066;14.124;2022-07-29T06:59:14;96554.41;;;21.75;56.62
49044;BME280;34860;48.066;14.124;2022-07-29T07:02:02;96552.09;;;21.57;57.09
49044;BME280;34860;48.066;14.124;2022-07-29T07:04:52;96551.31;;;21.56;57.11
49044;BME280;34860;48.066;14.124;2022-07-29T07:07:40;96560.59;;;21.51;57.22
49044;BME280;34860;48.066;14.124;2022-07-29T07:10:30;96561.34;;;21.46;57.23
49044;BME280;34860;48.066;14.124;2022-07-29T07:13:18;96568.03;;;21.49;57.23
49044;BME280;34860;48.066;14.124;2022-07-29T07:16:09;96557.50;;;21.49;57.23
49044;BME280;34860;48.066;14.124;2022-07-29T07:18:58;96558.78;;;21.48;57.25
49044;BME280;34860;48.066;14.124;2022-07-29T07:21:46;96561.84;;;21.45;57.26
49044;BME280;34860;48.066;14.124;2022-07-29T07:24:35;96564.16;;;21.46;57.40
49044;BME280;34860;48.066;14.124;2022-07-29T07:45:41;96561.09;;;21.89;56.25
49044;BME280;34860;48.066;14.124;2022-07-29T07:48:30;96566.97;;;22.03;56.16
49044;BME280;34860;48.066;14.124;2022-07-29T07:51:19;96562.06;;;22.03;56.21
49044;BME280;34860;48.066;14.124;2022-07-29T07:54:08;96554.84;;;22.19;55.88
49044;BME280;34860;48.066;14.124;2022-07-29T07:56:57;96564.09;;;22.31;55.59
49044;BME280;34860;48.066;14.124;2022-07-29T07:59:46;96559.44;;;22.39;55.35
49044;BME280;34860;48.066;14.124;2022-07-29T08:02:36;96558.16;;;22.40;55.59
49044;BME280;34860;48.066;14.124;2022-07-29T08:05:26;96563.56;;;22.38;55.62
49044;BME280;34860;48.066;14.124;2022-07-29T08:08:15;96566.09;;;22.47;55.57
49044;BME280;34860;48.066;14.124;2022-07-29T08:11:04;96560.41;;;22.59;55.18
49044;BME280;34860;48.066;14.124;2022-07-29T08:13:55;96564.50;;;22.69;55.06
49044;BME280;34860;48.066;14.124;2022-07-29T08:16:44;96563.16;;;22.76;55.04
49044;BME280;34860;48.066;14.124;2022-07-29T08:19:34;96567.22;;;22.86;54.87
49044;BME280;34860;48.066;14.124;2022-07-29T08:22:24;96568.72;;;22.93;54.86
49044;BME280;34860;48.066;14.124;2022-07-29T08:25:13;96565.63;;;22.96;54.63
49044;BME280;34860;48.066;14.124;2022-07-29T08:28:02;96565.59;;;23.02;54.75
49044;BME280;34860;48.066;14.124;2022-07-29T08:30:51;96561.97;;;23.07;54.65
49044;BME280;34860;48.066;14.124;2022-07-29T08:33:40;96560.16;;;23.15;54.77
49044;BME280;34860;48.066;14.124;2022-07-29T08:36:31;96555.22;;;23.21;54.82
49044;BME280;34860;48.066;14.124;2022-07-29T08:39:20;96565.94;;;23.34;54.58
49044;BME280;34860;48.066;14.124;2022-07-29T08:42:10;96560.28;;;23.34;54.67
49044;BME280;34860;48.066;14.124;2022-07-29T08:44:59;96559.47;;;23.39;54.97
49044;BME280;34860;48.066;14.124;2022-07-29T08:47:48;96558.31;;;23.54;54.74
49044;BME280;34860;48.066;14.124;2022-07-29T08:50:38;96556.63;;;23.70;54.51
49044;BME280;34860;48.066;14.124;2022-07-29T08:53:29;96566.69;;;23.71;54.65
49044;BME280;34860;48.066;14.124;2022-07-29T08:56:19;96559.69;;;23.78;54.79
49044;BME280;34860;48.066;14.124;2022-07-29T08:59:09;96563.72;;;23.88;54.32
49044;BME280;34860;48.066;14.124;2022-07-29T09:01:59;96559.53;;;23.94;54.21
49044;BME280;34860;48.066;14.124;2022-07-29T09:04:49;96564.41;;;24.00;54.35
49044;BME280;34860;48.066;14.124;2022-07-29T09:07:39;96566.16;;;24.03;54.34
49044;BME280;34860;48.066;14.124;2022-07-29T09:10:31;96564.41;;;24.00;54.16
49044;BME280;34860;48.066;14.124;2022-07-29T09:13:20;96567.81;;;23.92;54.36
49044;BME280;34860;48.066;14.124;2022-07-29T09:16:09;96569.63;;;23.90;54.45
49044;BME280;34860;48.066;14.124;2022-07-29T09:18:58;96574.03;;;23.91;54.58
49044;BME280;34860;48.066;14.124;2022-07-29T09:21:47;96579.59;;;24.02;54.66
49044;BME280;34860;48.066;14.124;2022-07-29T09:24:48;96573.44;;;24.23;54.10
49044;BME280;34860;48.066;14.124;2022-07-29T09:27:39;96579.41;;;24.44;53.88
49044;BME280;34860;48.066;14.124;2022-07-29T09:30:28;96568.72;;;24.56;53.78
49044;BME280;34860;48.066;14.124;2022-07-29T09:33:17;96573.75;;;24.69;53.73
49044;BME280;34860;48.066;14.124;2022-07-29T09:36:08;96564.06;;;24.77;53.86
49044;BME280;34860;48.066;14.124;2022-07-29T09:38:59;96570.44;;;24.83;53.81
49044;BME280;34860;48.066;14.124;2022-07-29T09:41:50;96565.53;;;25.03;53.39
49044;BME280;34860;48.066;14.124;2022-07-29T09:44:44;96567.47;;;25.33;53.24
49044;BME280;34860;48.066;14.124;2022-07-29T09:47:41;96566.28;;;25.42;52.93
49044;BME280;34860;48.066;14.124;2022-07-29T09:50:37;96563.16;;;25.26;53.35
49044;BME280;34860;48.066;14.124;2022-07-29T09:53:33;96564.94;;;25.29;53.27
49044;BME280;34860;48.066;14.124;2022-07-29T09:56:38;96554.31;;;25.11;53.63
49044;BME280;34860;48.066;14.124;2022-07-29T09:59:27;96557.91;;;25.11;53.79
49044;BME280;34860;48.066;14.124;2022-07-29T10:02:17;96558.84;;;25.19;53.92
49044;BME280;34860;48.066;14.124;2022-07-29T10:05:17;96558.59;;;25.17;53.92
49044;BME280;34860;48.066;14.124;2022-07-29T10:08:07;96558.94;;;25.33;53.54
49044;BME280;34860;48.066;14.124;2022-07-29T10:11:09;96559.63;;;25.39;53.41
49044;BME280;34860;48.066;14.124;2022-07-29T10:13:58;96558.78;;;25.58;52.97
49044;BME280;34860;48.066;14.124;2022-07-29T10:16:47;96550.50;;;25.60;52.98
49044;BME280;34860;48.066;14.124;2022-07-29T10:19:38;96543.03;;;25.56;52.84
49044;BME280;34860;48.066;14.124;2022-07-29T10:22:29;96544.41;;;25.69;52.74
49044;BME280;34860;48.066;14.124;2022-07-29T10:25:39;96546.72;;;25.84;52.68
49044;BME280;34860;48.066;14.124;2022-07-29T10:28:31;96547.56;;;25.98;52.46
49044;BME280;34860;48.066;14.124;2022-07-29T10:31:26;96539.53;;;25.96;52.25
49044;BME280;34860;48.066;14.124;2022-07-29T10:34:25;96546.91;;;26.05;52.51
49044;BME280;34860;48.066;14.124;2022-07-29T10:37:22;96538.25;;;26.24;52.20
49044;BME280;34860;48.066;14.124;2022-07-29T10:40:22;96542.66;;;26.38;51.98
49044;BME280;34860;48.066;14.124;2022-07-29T10:43:33;96548.56;;;26.54;51.80
49044;BME280;34860;48.066;14.124;2022-07-29T10:46:25;96550.19;;;26.62;51.53
49044;BME280;34860;48.066;14.124;2022-07-29T10:49:16;96541.97;;;26.59;51.64
49044;BME280;34860;48.066;14.124;2022-07-29T10:52:07;96552.28;;;26.75;51.53
49044;BME280;34860;48.066;14.124;2022-07-29T10:54:58;96552.72;;;26.79;51.63
49044;BME280;34860;48.066;14.124;2022-07-29T10:58:11;96548.94;;;26.98;51.40
49044;BME280;34860;48.066;14.124;2022-07-29T11:01:27;96545.19;;;27.16;51.02
49044;BME280;34860;48.066;14.124;2022-07-29T11:08:22;96536.31;;;27.41;50.45
49044;BME280;34860;48.066;14.124;2022-07-29T11:11:32;96536.81;;;27.32;50.62
49044;BME280;34860;48.066;14.124;2022-07-29T11:14:55;96534.59;;;27.59;50.40
49044;BME280;34860;48.066;14.124;2022-07-29T11:18:05;96534.81;;;27.61;50.29
49044;BME280;34860;48.066;14.124;2022-07-29T11:20:54;96537.66;;;27.82;49.77
49044;BME280;34860;48.066;14.124;2022-07-29T11:23:43;96539.81;;;28.11;49.50
49044;BME280;34860;48.066;14.124;2022-07-29T11:26:33;96534.66;;;28.38;48.96
49044;BME280;34860;48.066;14.124;2022-07-29T11:29:23;96542.44;;;28.58;48.86
49044;BME280;34860;48.066;14.124;2022-07-29T11:32:13;96533.28;;;28.60;48.77
49044;BME280;34860;48.066;14.124;2022-07-29T11:35:15;96526.53;;;28.78;48.50
49044;BME280;34860;48.066;14.124;2022-07-29T11:38:25;96532.66;;;28.90;48.51
49044;BME280;34860;48.066;14.124;2022-07-29T11:41:24;96534.44;;;29.01;48.37
49044;BME280;34860;48.066;14.124;2022-07-29T11:44:15;96532.44;;;28.80;48.81
49044;BME280;34860;48.066;14.124;2022-07-29T11:47:04;96527.91;;;29.01;48.64
49044;BME280;34860;48.066;14.124;2022-07-29T11:49:57;96539.47;;;29.24;47.94
49044;BME280;34860;48.066;14.124;2022-07-29T11:52:46;96537.69;;;29.88;46.98
49044;BME280;34860;48.066;14.124;2022-07-29T11:55:37;96538.59;;;30.37;46.14
49044;BME280;34860;48.066;14.124;2022-07-29T11:58:27;96543.97;;;30.40;46.09
49044;BME280;34860;48.066;14.124;2022-07-29T12:01:18;96542.69;;;30.98;45.38
49044;BME280;34860;48.066;14.124;2022-07-29T12:04:08;96542.63;;;31.46;44.64
49044;BME280;34860;48.066;14.124;2022-07-29T12:06:57;96535.97;;;31.94;43.66
49044;BME280;34860;48.066;14.124;2022-07-29T12:09:50;96518.34;;;32.40;42.81
49044;BME280;34860;48.066;14.124;2022-07-29T12:12:39;96514.22;;;32.86;41.88
49044;BME280;34860;48.066;14.124;2022-07-29T12:15:28;96517.94;;;32.79;42.32
49044;BME280;34860;48.066;14.124;2022-07-29T12:18:19;96508.94;;;33.09;42.29
49044;BME280;34860;48.066;14.124;2022-07-29T12:21:08;96515.56;;;33.29;42.00
49044;BME280;34860;48.066;14.124;2022-07-29T12:23:57;96511.28;;;33.48;42.05
49044;BME280;34860;48.066;14.124;2022-07-29T12:26:51;96510.75;;;34.06;41.19
49044;BME280;34860;48.066;14.124;2022-07-29T12:29:40;96508.41;;;34.32;40.83
49044;BME280;34860;48.066;14.124;2022-07-29T12:32:33;96497.19;;;34.36;40.76
49044;BME280;34860;48.066;14.124;2022-07-29T12:35:24;96500.53;;;34.52;40.62
49044;BME280;34860;48.066;14.124;2022-07-29T12:38:13;96491.72;;;34.30;41.33
49044;BME280;34860;48.066;14.124;2022-07-29T12:41:03;96482.13;;;34.18;41.69
49044;BME280;34860;48.066;14.124;2022-07-29T12:43:53;96479.16;;;33.98;42.52
49044;BME280;34860;48.066;14.124;2022-07-29T12:46:42;96473.22;;;34.53;41.99
49044;BME280;34860;48.066;14.124;2022-07-29T12:49:33;96469.97;;;35.17;40.35
49044;BME280;34860;48.066;14.124;2022-07-29T12:52:29;96463.63;;;35.91;39.38
49044;BME280;34860;48.066;14.124;2022-07-29T12:55:38;96457.81;;;36.44;37.99
49044;BME280;34860;48.066;14.124;2022-07-29T12:58:29;96459.66;;;36.40;38.73
49044;BME280;34860;48.066;14.124;2022-07-29T13:01:20;96463.28;;;36.62;38.45
49044;BME280;34860;48.066;14.124;2022-07-29T13:04:10;96471.31;;;36.73;38.40
49044;BME280;34860;48.066;14.124;2022-07-29T13:07:00;96461.34;;;37.67;37.10
49044;BME280;34860;48.066;14.124;2022-07-29T13:09:51;96466.72;;;38.81;35.09
49044;BME280;34860;48.066;14.124;2022-07-29T13:13:04;96465.03;;;40.08;33.46
49044;BME280;34860;48.066;14.124;2022-07-29T13:16:06;96461.72;;;41.01;31.95
49044;BME280;34860;48.066;14.124;2022-07-29T13:19:06;96465.31;;;41.62;31.55
49044;BME280;34860;48.066;14.124;2022-07-29T13:21:55;96473.88;;;41.57;32.22
49044;BME280;34860;48.066;14.124;2022-07-29T13:24:49;96468.06;;;42.39;30.57
49044;BME280;34860;48.066;14.124;2022-07-29T13:27:40;96463.81;;;42.42;31.14
49044;BME280;34860;48.066;14.124;2022-07-29T13:30:29;96472.75;;;42.62;30.80
49044;BME280;34860;48.066;14.124;2022-07-29T13:33:20;96477.28;;;43.20;30.31
49044;BME280;34860;48.066;14.124;2022-07-29T13:36:08;96461.69;;;43.89;29.90
49044;BME280;34860;48.066;14.124;2022-07-29T13:38:57;96469.72;;;44.29;29.25
49044;BME280;34860;48.066;14.124;2022-07-29T13:41:48;96464.81;;;44.55;28.56
49044;BME280;34860;48.066;14.124;2022-07-29T13:44:39;96460.00;;;45.08;27.73
49044;BME280;34860;48.066;14.124;2022-07-29T13:47:28;96457.75;;;45.07;28.09
49044;BME280;34860;48.066;14.124;2022-07-29T13:50:17;96463.38;;;45.45;27.83
49044;BME280;34860;48.066;14.124;2022-07-29T13:53:06;96451.66;;;45.71;27.52
49044;BME280;34860;48.066;14.124;2022-07-29T13:55:55;96438.41;;;46.20;27.48
49044;BME280;34860;48.066;14.124;2022-07-29T13:58:44;96441.16;;;45.40;28.27
49044;BME280;34860;48.066;14.124;2022-07-29T14:01:34;96426.69;;;45.46;29.01
49044;BME280;34860;48.066;14.124;2022-07-29T14:04:24;96430.94;;;46.15;27.88
49044;BME280;34860;48.066;14.124;2022-07-29T14:07:13;96419.03;;;46.66;27.35
49044;BME280;34860;48.066;14.124;2022-07-29T14:10:02;96420.28;;;46.56;27.28
49044;BME280;34860;48.066;14.124;2022-07-29T14:12:51;96415.38;;;46.67;27.27
49044;BME280;34860;48.066;14.124;2022-07-29T14:15:40;96423.50;;;46.97;27.03
49044;BME280;34860;48.066;14.124;2022-07-29T14:18:30;96403.00;;;47.01;27.02
49044;BME280;34860;48.066;14.124;2022-07-29T14:21:19;96416.66;;;46.58;27.78
49044;BME280;34860;48.066;14.124;2022-07-29T14:24:08;96405.47;;;46.83;27.40
49044;BME280;34860;48.066;14.124;2022-07-29T14:26:58;96408.97;;;47.05;27.03
49044;BME280;34860;48.066;14.124;2022-07-29T14:29:47;96408.50;;;47.17;26.74
49044;BME280;34860;48.066;14.124;2022-07-29T14:32:35;96407.75;;;47.17;26.59
49044;BME280;34860;48.066;14.124;2022-07-29T14:35:26;96399.56;;;47.45;26.09
49044;BME280;34860;48.066;14.124;2022-07-29T14:38:15;96408.50;;;47.50;26.24
49044;BME280;34860;48.066;14.124;2022-07-29T14:41:04;96409.63;;;47.34;26.47
49044;BME280;34860;48.066;14.124;2022-07-29T14:43:53;96411.53;;;46.91;27.23
49044;BME280;34860;48.066;14.124;2022-07-29T14:46:41;96405.88;;;46.69;27.48
49044;BME280;34860;48.066;14.124;2022-07-29T14:49:30;96403.09;;;45.92;28.13
49044;BME280;34860;48.066;14.124;2022-07-29T14:52:21;96392.94;;;46.23;27.72
49044;BME280;34860;48.066;14.124;2022-07-29T14:55:09;96411.34;;;46.83;26.82
49044;BME280;34860;48.066;14.124;2022-07-29T14:57:58;96403.56;;;45.58;28.48
49044;BME280;34860;48.066;14.124;2022-07-29T15:00:54;96405.50;;;45.25;29.07
49044;BME280;34860;48.066;14.124;2022-07-29T15:03:43;96396.25;;;45.83;28.36
49044;BME280;34860;48.066;14.124;2022-07-29T15:06:32;96395.47;;;45.32;28.55
49044;BME280;34860;48.066;14.124;2022-07-29T15:09:25;96384.34;;;43.56;30.42
49044;BME280;34860;48.066;14.124;2022-07-29T15:12:13;96392.47;;;41.32;33.26
49044;BME280;34860;48.066;14.124;2022-07-29T15:15:03;96381.41;;;38.88;36.24
49044;BME280;34860;48.066;14.124;2022-07-29T15:17:55;96371.13;;;38.22;37.28
49044;BME280;34860;48.066;14.124;2022-07-29T15:20:47;96372.09;;;38.64;36.25
49044;BME280;34860;48.066;14.124;2022-07-29T15:23:36;96366.78;;;37.61;36.91